createdAt,value
2022-12-13T00:00:16.686Z,-3.93
2022-12-13T00:05:43.909Z,-4.47
2022-12-13T00:08:36.591Z,-4.64
2022-12-13T00:11:07.147Z,-4.61
2022-12-13T00:13:45.433Z,-4.52
2022-12-13T00:16:24.159Z,-4.27
2022-12-13T00:21:55.765Z,-4.14
2022-12-13T00:24:25.731Z,-4.04
2022-12-13T00:27:06.001Z,-4.11
2022-12-13T00:29:45.031Z,-4.22
2022-12-13T00:32:22.657Z,-4.31
2022-12-13T00:35:02.431Z,-4.44
2022-12-13T00:37:33.060Z,-4.49
2022-12-13T00:40:28.783Z,-4.55
2022-12-13T00:43:04.303Z,-4.76
2022-12-13T00:45:34.957Z,-4.91
2022-12-13T00:48:08.407Z,-4.61
2022-12-13T00:50:42.754Z,-4.55
2022-12-13T00:53:12.648Z,-4.54
2022-12-13T00:55:45.725Z,-4.69
2022-12-13T00:58:22.015Z,-4.75
2022-12-13T01:01:00.776Z,-4.73
2022-12-13T01:06:23.808Z,-4.73
2022-12-13T01:08:59.186Z,-4.83
2022-12-13T01:11:46.871Z,-4.91
2022-12-13T01:14:19.456Z,-4.95
2022-12-13T01:16:47.848Z,-4.92
2022-12-13T01:19:17.484Z,-4.88
2022-12-13T01:21:45.984Z,-4.91
2022-12-13T01:24:22.946Z,-4.95
2022-12-13T01:26:56.961Z,-4.98
2022-12-13T01:29:29.544Z,-5.00
2022-12-13T01:32:06.583Z,-5.02
2022-12-13T01:34:38.970Z,-5.13
2022-12-13T01:37:08.049Z,-5.08
2022-12-13T01:39:44.740Z,-5.03
2022-12-13T01:45:34.677Z,-4.97
2022-12-13T01:51:24.614Z,-4.82
2022-12-13T01:56:48.492Z,-4.85
2022-12-13T01:59:31.782Z,-4.94
2022-12-13T02:02:10.804Z,-4.94
2022-12-13T02:04:44.265Z,-5.01
2022-12-13T02:07:23.203Z,-5.00
2022-12-13T02:12:57.027Z,-4.96
2022-12-13T02:15:37.819Z,-4.99
2022-12-13T02:18:18.323Z,-5.04
2022-12-13T02:21:08.969Z,-5.09
2022-12-13T02:23:56.794Z,-5.04
2022-12-13T02:27:00.503Z,-5.04
2022-12-13T02:30:04.924Z,-5.01
2022-12-13T02:32:40.762Z,-5.02
2022-12-13T02:35:22.474Z,-5.00
2022-12-13T02:38:10.118Z,-4.99
2022-12-13T02:41:00.875Z,-5.06
2022-12-13T02:50:14.233Z,-4.88
2022-12-13T02:52:49.907Z,-4.89
2022-12-13T02:55:27.935Z,-4.90
2022-12-13T02:58:04.749Z,-4.93
2022-12-13T03:00:45.373Z,-4.96
2022-12-13T03:09:50.594Z,-4.80
2022-12-13T03:12:43.606Z,-4.87
2022-12-13T03:15:18.331Z,-5.04
2022-12-13T03:17:54.795Z,-5.18
2022-12-13T03:20:54.097Z,-5.36
2022-12-13T03:23:32.832Z,-5.44
2022-12-13T03:28:51.609Z,-5.64
2022-12-13T03:31:32.495Z,-5.75
2022-12-13T03:34:43.706Z,-5.81
2022-12-13T03:37:24.689Z,-5.94
2022-12-13T03:40:34.981Z,-5.92
2022-12-13T03:43:34.637Z,-5.86
2022-12-13T03:49:17.281Z,-6.04
2022-12-13T03:54:47.397Z,-5.92
2022-12-13T03:57:26.608Z,-5.84
2022-12-13T04:02:57.328Z,-5.72
2022-12-13T04:05:37.976Z,-5.68
2022-12-13T04:16:30.384Z,-5.75
2022-12-13T04:19:16.498Z,-5.68
2022-12-13T04:21:54.809Z,-5.70
2022-12-13T04:27:24.533Z,-5.64
2022-12-13T04:36:15.547Z,-5.72
2022-12-13T04:39:22.594Z,-5.79
2022-12-13T04:42:04.274Z,-5.84
2022-12-13T04:47:25.019Z,-5.82
2022-12-13T04:52:44.367Z,-5.68
2022-12-13T04:55:15.581Z,-5.80
2022-12-13T04:57:45.763Z,-5.89
2022-12-13T05:05:55.916Z,-5.99
2022-12-13T05:08:45.409Z,-6.09
2022-12-13T05:11:23.448Z,-6.15
2022-12-13T05:14:05.593Z,-6.24
2022-12-13T05:16:56.144Z,-6.21
2022-12-13T05:19:52.488Z,-6.19
2022-12-13T05:22:24.142Z,-6.20
2022-12-13T05:25:23.653Z,-6.13
2022-12-13T05:30:40.392Z,-6.11
2022-12-13T05:33:19.288Z,-6.22
2022-12-13T05:35:59.796Z,-6.21
2022-12-13T05:41:34.998Z,-6.12
2022-12-13T05:44:07.535Z,-6.27
2022-12-13T05:46:41.609Z,-6.28
2022-12-13T05:49:10.331Z,-6.21
2022-12-13T05:54:25.156Z,-6.15
2022-12-13T05:57:10.105Z,-6.29
2022-12-13T05:59:44.326Z,-6.30
2022-12-13T06:02:26.234Z,-6.42
2022-12-13T06:04:58.453Z,-6.46
2022-12-13T06:07:30.232Z,-6.50
2022-12-13T06:10:10.587Z,-6.58
2022-12-13T06:12:44.160Z,-6.70
2022-12-13T06:15:21.727Z,-6.72
2022-12-13T06:17:59.240Z,-6.69
2022-12-13T06:20:28.696Z,-6.75
2022-12-13T06:22:56.871Z,-6.79
2022-12-13T06:25:31.255Z,-6.86
2022-12-13T06:28:07.542Z,-6.81
2022-12-13T06:30:35.761Z,-6.82
2022-12-13T06:33:13.364Z,-6.81
2022-12-13T06:35:41.827Z,-6.83
2022-12-13T06:38:11.848Z,-6.82
2022-12-13T06:40:45.414Z,-6.85
2022-12-13T06:43:16.199Z,-6.78
2022-12-13T06:45:44.397Z,-6.79
2022-12-13T06:48:17.496Z,-6.83
2022-12-13T06:50:49.278Z,-6.80
2022-12-13T06:53:26.700Z,-6.72
2022-12-13T06:55:57.759Z,-6.66
2022-12-13T06:58:31.251Z,-6.59
2022-12-13T07:01:15.055Z,-6.65
2022-12-13T07:03:52.527Z,-6.63
2022-12-13T07:06:27.196Z,-6.48
2022-12-13T07:08:58.654Z,-6.64
2022-12-13T07:11:29.951Z,-6.69
2022-12-13T07:14:01.233Z,-6.59
2022-12-13T07:16:31.971Z,-6.63
2022-12-13T07:19:02.866Z,-6.61
2022-12-13T07:21:32.125Z,-6.58
2022-12-13T07:26:45.959Z,-6.51
2022-12-13T07:29:22.713Z,-6.42
2022-12-13T07:31:52.332Z,-6.34
2022-12-13T07:34:22.659Z,-6.26
2022-12-13T07:36:52.844Z,-6.39
2022-12-13T07:39:21.553Z,-6.40
2022-12-13T07:44:59.242Z,-6.28
2022-12-13T07:47:30.665Z,-6.31
2022-12-13T07:50:23.759Z,-6.25
2022-12-13T07:52:55.461Z,-6.32
2022-12-13T07:55:33.740Z,-6.30
2022-12-13T08:00:52.057Z,-6.28
2022-12-13T08:03:25.715Z,-6.27
2022-12-13T08:06:00.306Z,-6.26
2022-12-13T08:08:31.388Z,-6.27
2022-12-13T08:11:19.018Z,-6.29
2022-12-13T08:13:47.361Z,-6.09
2022-12-13T08:16:26.654Z,-6.06
2022-12-13T08:19:02.225Z,-5.83
2022-12-13T08:24:23.755Z,-5.55
2022-12-13T08:26:51.919Z,-5.43
2022-12-13T08:29:33.495Z,-5.24
2022-12-13T08:32:11.337Z,-5.06
2022-12-13T08:34:39.457Z,-5.10
2022-12-13T08:37:13.859Z,-5.06
2022-12-13T08:39:45.289Z,-4.82
2022-12-13T08:42:19.903Z,-4.72
2022-12-13T08:44:50.340Z,-4.71
2022-12-13T08:47:24.717Z,-4.62
2022-12-13T08:50:02.785Z,-4.58
2022-12-13T08:52:39.801Z,-4.22
2022-12-13T08:55:11.039Z,-4.18
2022-12-13T08:57:43.043Z,-4.28
2022-12-13T09:00:12.967Z,-4.03
2022-12-13T09:02:51.913Z,-4.02
2022-12-13T09:05:33.637Z,-3.96
2022-12-13T09:08:24.535Z,-3.57
2022-12-13T09:11:00.153Z,-2.78
2022-12-13T09:13:31.572Z,-2.41
2022-12-13T09:16:14.481Z,-3.07
2022-12-13T09:18:56.166Z,-2.33
2022-12-13T09:21:31.678Z,-1.69
2022-12-13T09:24:02.028Z,-1.09
2022-12-13T09:26:38.243Z,-1.58
2022-12-13T09:29:10.956Z,-1.42
2022-12-13T09:31:40.994Z,-1.47
2022-12-13T09:34:11.763Z,-0.81
2022-12-13T09:39:24.173Z,-1.78
2022-12-13T09:42:00.951Z,-1.56
2022-12-13T09:44:45.179Z,-1.27
2022-12-13T09:47:23.666Z,-1.23
2022-12-13T09:50:03.954Z,-1.55
2022-12-13T09:52:38.855Z,-0.94
2022-12-13T09:55:20.583Z,-0.70
2022-12-13T09:57:55.453Z,-1.61
2022-12-13T10:00:35.330Z,-1.65
2022-12-13T10:03:06.303Z,-1.55
2022-12-13T10:05:46.406Z,-0.54
2022-12-13T10:08:21.592Z,-0.24
2022-12-13T10:10:53.086Z,-0.29
2022-12-13T10:13:25.773Z,0.36
2022-12-13T10:15:56.129Z,0.59
2022-12-13T10:18:31.050Z,0.52
2022-12-13T10:21:02.803Z,0.79
2022-12-13T10:23:59.878Z,0.46
2022-12-13T10:26:24.514Z,1.09
2022-12-13T10:29:02.563Z,1.21
2022-12-13T10:31:46.708Z,1.90
2022-12-13T10:34:21.770Z,2.83
2022-12-13T10:37:03.991Z,2.36
2022-12-13T10:39:41.576Z,1.80
2022-12-13T10:42:32.104Z,2.70
2022-12-13T10:45:12.164Z,3.91
2022-12-13T10:50:32.492Z,3.51
2022-12-13T10:53:02.281Z,2.92
2022-12-13T10:55:31.840Z,3.39
2022-12-13T10:58:14.285Z,3.98
2022-12-13T11:00:50.057Z,4.60
2022-12-13T11:03:31.015Z,3.15
2022-12-13T11:06:05.157Z,3.65
2022-12-13T11:08:43.367Z,4.09
2022-12-13T11:11:15.776Z,4.58
2022-12-13T11:13:53.986Z,3.92
2022-12-13T11:16:29.922Z,3.88
2022-12-13T11:19:00.287Z,3.88
2022-12-13T11:21:30.604Z,3.99
2022-12-13T11:27:01.038Z,4.46
2022-12-13T11:29:45.162Z,4.66
2022-12-13T11:32:39.690Z,5.31
2022-12-13T11:41:32.434Z,4.88
2022-12-13T11:44:10.723Z,5.01
2022-12-13T11:46:41.026Z,5.55
2022-12-13T11:49:15.917Z,5.23
2022-12-13T11:54:34.968Z,4.91
2022-12-13T11:57:16.109Z,4.24
2022-12-13T12:05:37.867Z,5.38
2022-12-13T12:16:44.298Z,6.50
2022-12-13T12:19:17.192Z,6.17
2022-12-13T12:24:53.940Z,6.48
2022-12-13T12:27:31.402Z,5.29
2022-12-13T12:30:22.955Z,4.76
2022-12-13T12:32:56.368Z,4.38
2022-12-13T12:35:37.196Z,2.59
2022-12-13T12:38:18.268Z,2.91
2022-12-13T12:41:17.762Z,2.90
2022-12-13T12:43:47.054Z,2.91
2022-12-13T12:46:35.452Z,3.01
2022-12-13T12:49:32.924Z,2.31
2022-12-13T12:52:05.003Z,2.79
2022-12-13T12:54:44.720Z,3.23
2022-12-13T12:57:20.820Z,3.18
2022-12-13T13:00:02.391Z,2.62
2022-12-13T13:05:32.580Z,3.09
2022-12-13T13:08:05.757Z,2.16
2022-12-13T13:10:37.289Z,1.92
2022-12-13T13:13:16.393Z,1.41
2022-12-13T13:16:03.800Z,0.93
2022-12-13T13:21:52.239Z,1.57
2022-12-13T13:24:28.882Z,0.59
2022-12-13T13:26:59.732Z,1.13
2022-12-13T13:32:42.906Z,1.67
2022-12-13T13:35:33.244Z,1.68
2022-12-13T13:41:27.203Z,2.14
2022-12-13T13:44:38.009Z,2.43
2022-12-13T13:47:19.109Z,2.85
2022-12-13T13:50:02.461Z,2.33
2022-12-13T13:52:56.958Z,2.54
2022-12-13T13:55:41.022Z,2.51
2022-12-13T13:58:27.373Z,2.20
2022-12-13T14:07:53.075Z,3.22
2022-12-13T14:10:40.418Z,2.29
2022-12-13T14:13:32.846Z,1.60
2022-12-13T14:16:38.848Z,1.94
2022-12-13T14:19:32.127Z,1.93
2022-12-13T14:22:09.835Z,1.53
2022-12-13T14:24:46.962Z,1.02
2022-12-13T14:27:23.287Z,0.57
2022-12-13T14:29:58.099Z,0.66
2022-12-13T14:32:30.057Z,0.14
2022-12-13T14:35:25.272Z,-0.11
2022-12-13T14:37:59.956Z,-0.31
2022-12-13T14:40:34.640Z,-0.40
2022-12-13T14:43:03.412Z,-0.68
2022-12-13T14:45:34.335Z,-0.72
2022-12-13T14:48:08.398Z,-0.73
2022-12-13T14:50:44.909Z,-0.77
2022-12-13T14:53:28.096Z,-0.95
2022-12-13T15:02:01.451Z,-1.00
2022-12-13T15:04:40.674Z,-1.02
2022-12-13T15:07:45.740Z,-1.24
2022-12-13T15:10:50.912Z,-1.31
2022-12-13T15:16:17.462Z,-1.20
2022-12-13T15:18:52.875Z,-1.24
2022-12-13T15:21:28.224Z,-1.31
2022-12-13T15:24:06.026Z,-1.37
2022-12-13T15:29:32.463Z,-1.43
2022-12-13T15:32:03.050Z,-1.37
2022-12-13T15:34:35.990Z,-1.58
2022-12-13T15:37:08.484Z,-1.49
2022-12-13T15:40:01.709Z,-1.52
2022-12-13T15:42:33.902Z,-1.47
2022-12-13T15:45:08.333Z,-1.28
2022-12-13T15:50:48.781Z,-1.65
2022-12-13T15:53:27.384Z,-1.73
2022-12-13T15:55:56.738Z,-1.80
2022-12-13T15:58:38.326Z,-1.87
2022-12-13T16:01:10.468Z,-1.73
2022-12-13T16:03:47.279Z,-1.56
2022-12-13T16:06:25.517Z,-1.62
2022-12-13T16:11:48.617Z,-1.53
2022-12-13T16:14:37.258Z,-1.73
2022-12-13T16:20:38.101Z,-1.83
2022-12-13T16:26:40.140Z,-2.15
2022-12-13T16:32:55.934Z,-1.90
2022-12-13T16:35:27.938Z,-2.09
2022-12-13T16:43:42.049Z,-2.10
2022-12-13T16:52:47.542Z,-2.22
2022-12-13T16:55:31.240Z,-2.29
2022-12-13T17:01:06.478Z,-2.24
2022-12-13T17:16:25.989Z,-2.54
2022-12-13T17:25:29.136Z,-2.70
2022-12-13T17:28:27.493Z,-2.61
2022-12-13T18:10:30.285Z,-2.71
2022-12-13T18:40:35.413Z,-2.53
2022-12-13T19:31:32.012Z,-2.27
2022-12-13T19:34:05.624Z,-2.29
2022-12-13T19:37:09.865Z,-2.17
2022-12-13T19:43:02.475Z,-2.16
2022-12-13T19:54:49.802Z,-2.38
2022-12-13T19:57:54.267Z,-2.42
2022-12-13T21:28:26.035Z,-2.44
2022-12-13T21:31:23.762Z,-2.47
2022-12-13T21:40:36.431Z,-2.31
2022-12-13T21:46:55.258Z,-2.38
2022-12-13T21:52:37.580Z,-2.28
2022-12-13T21:55:41.463Z,-2.22
2022-12-13T21:58:29.840Z,-2.21
2022-12-13T22:01:00.488Z,-2.25
2022-12-13T22:04:07.148Z,-2.17
2022-12-13T22:06:48.602Z,-2.29
2022-12-13T22:35:16.725Z,-2.00
2022-12-13T22:44:06.566Z,-1.95
2022-12-13T23:03:01.769Z,-1.88
2022-12-13T23:09:10.997Z,-1.87
2022-12-13T23:27:26.024Z,-1.74
2022-12-13T23:33:26.044Z,-1.76
2022-12-13T23:36:10.107Z,-1.77
2022-12-13T23:42:51.225Z,-1.78
2022-12-13T23:45:50.773Z,-1.78
2022-12-13T23:57:10.088Z,-1.44
